Aérodrome :
LOGIN :

S'inscrire | Disclaimer

   EN    FR    IT 

 










Légende :    VFR   VFR Marginal   IFR   IFR Intensif   IFR Très Intensif
Visi : 
Plafond : 
>= 8 km
>= 3000ft
5 à 8 km
1000 à 3000 ft
1500m à 5 km
500 à 1000 ft
800 à 1500m
200 à 500 ft
< 800m
< 200 ft
Symboles :   Orages  Brouillard  Fortes neiges  Fortes précipitations  Vent > 20 kt
SIGMETs :   Divers  Orages  Givrage  Turbulence  Onde Orograph.  Cendres Volcan.






- Altitude de l'aérodrome : 427 ft
- Code IATA : KBP


UKBB - Boryspil'

DERNIER METAR :
  • 211530Z VRB01MPS CAVOK 03/M02 Q1022 R88/D NOSIG

METARs EXPIRÉS :
  • 211500Z 26002MPS CAVOK 04/M02 Q1021 R88/D NOSIG
  • 211430Z 24002MPS CAVOK 04/M02 Q1021 R88/D NOSIG
  • 211400Z 24003MPS CAVOK 05/M02 Q1021 R88/D NOSIG
  • 211330Z 23003MPS CAVOK 05/M02 Q1021 R88/D NOSIG
  • 211300Z 21004MPS CAVOK 05/M01 Q1021 R88/CLRD// NOSIG

TAF COR TAF UKBB
Valide du 21 à 12h jusqu'au 22 à 12h UTC


211105Z 2112/2212 18003G08MPS 6000 BKN010 TX05/2112Z TNM01/2205Z
TEMPO 2112/2117 2000 -SHRA BR BKN005 SCT012CB
BECMG 2117/2118 VRB01MPS 3000 BR BKN006
TEMPO 2118/2208 1000 BR BKN003
PROB40
TEMPO 2120/2205 0400 FZFG VV001



MET'MAP, la Météo Aéronautique d'un coup d'oeil ! - Copyright ORBIFLY Décembre 2007 - Disclaimer

ORBIFLY MET'MAP TEAM :

Programmation & Développement : Alexandra Zaïnal
Sur une idée originale de : Baudouin d'Aumeries
Assistance à la programmation : Marc-Olivier Méhu
Soutien technique & logistique : Manuel Goepfert

Contact : metmap@orbifly.com




SOURCES & CREDITS :

   NOAA